• Join FlightAware (Why Join?)
  • Login
  • US Flag 
11:56PM EDT


 

Airport Tracker/Info


-or-


 

Live Flight TrackerFlight Track Log ✈ ASQ5740 ✈ 13-Nov-2013 ✈ KGSP - KIAD

Flight Track Log - Related Links

Times and Time Zones

All times are in EST time to prevent confusion due to time zone crossing. See the ASQ5740 flight status page for this flight to view local times or setup timezone preferences in your user account.

Time Position Orientation Groundspeed Altitude Reporting Facility
EST Latitude Longitude Course Direction KTS MPH feet Rate Location/Type
03:00PM 34.9372 -82.1081 80° East 216 249 5,500  Level Atlanta Center
03:01PM 35.1172 -81.9766 North  Level Estimated
03:01PM 34.9464 -82.0242 82° East 229 264 7,800  Level Atlanta Center
03:02PM 35.1909 -81.8955 North  Level Estimated
03:02PM 34.9997 -81.9622 44° Northeast 236 272 9,900  Level Atlanta Center
03:03PM 35.2893 -81.9099 353° North  Level FlightAware Approximate
03:03PM 35.0825 -81.9297 18° North 270 311 11,100  Level Atlanta Center
03:04PM 35.3621 -81.8272 North  Level Estimated
03:04PM 35.1703 -81.9375 356° North 285 328 12,800  Level Atlanta Center
03:05PM 35.4347 -81.7445 80° East  Level Estimated
03:05PM 35.2642 -81.9300 North 305 351 13,500  Level Atlanta Center
03:06PM 35.3292 -81.8292 52° Northeast 321 369 14,500 1,200 Climbing Atlanta Center
03:07PM 35.3769 -81.7056 65° Northeast 365 420 15,900 1,320 Climbing Atlanta Center
03:08PM 35.4267 -81.5844 63° Northeast 365 420 17,200 1,020 Climbing Atlanta Center
03:09PM 35.4719 -81.4581 66° East 386 444 18,000 900 Climbing Atlanta Center
03:10PM 35.5194 -81.3342 65° Northeast 392 451 19,100 840 Climbing Atlanta Center
03:11PM 35.5689 -81.2072 64° Northeast 404 465 19,700 540 Climbing Atlanta Center
03:12PM 35.6200 -81.0778 64° Northeast 404 465 20,200 480 Climbing Atlanta Center
03:13PM 35.6689 -80.9483 65° Northeast 404 465 20,700 540 Climbing Atlanta Center
03:14PM 35.7200 -80.8236 63° Northeast 404 465 21,300 600 Climbing Atlanta Center
03:15PM 35.7686 -80.6961 65° Northeast 404 465 22,000 600 Climbing Atlanta Center
03:16PM 35.8153 -80.5739 65° Northeast 410 472 22,500 540 Climbing Atlanta Center
03:19PM 35.9397 -80.2586 64° Northeast 406 467 24,000 600 Climbing Washington Center
03:20PM 35.9867 -80.1281 66° East 411 473 24,600 540 Climbing Washington Center
03:21PM 36.0394 -80.0000 63° Northeast 411 473 25,100 480 Climbing Washington Center
03:22PM 36.1022 -79.8828 56° Northeast 411 473 25,600 480 Climbing Washington Center
03:23PM 36.1667 -79.7653 56° Northeast 406 467 26,100 420 Climbing Washington Center
03:24PM 36.2356 -79.6478 54° Northeast 418 481 26,500 480 Climbing Washington Center
03:25PM 36.3019 -79.5303 55° Northeast 413 475 27,100 420 Climbing Washington Center
03:26PM 36.3508 -79.4397 56° Northeast 408 470 27,400 -60 Climbing Washington Center
03:27PM 36.4239 -79.3092 55° Northeast 408 470 27,000 -540 Descending Washington Center
03:28PM 36.4967 -79.1756 56° Northeast 414 476 26,400 -540 Descending Washington Center
03:29PM 36.5669 -79.0600 53° Northeast 414 476 26,000 -480 Descending Washington Center
03:30PM 36.6331 -78.9386 56° Northeast 414 476 25,500 -480 Descending Washington Center
03:31PM 36.6947 -78.8169 58° Northeast 419 482 25,100 -300 Descending Washington Center
03:32PM 36.7561 -78.7081 55° Northeast 419 482 25,000 -60 Descending Washington Center
03:33PM 36.8197 -78.5886 56° Northeast 414 476 25,000  Level Washington Center
03:34PM 36.8972 -78.4878 46° Northeast 409 471 25,000 -60 Level Washington Center
03:35PM 36.9997 -78.3850 39° Northeast 403 464 24,900 -360 Descending Washington Center
03:36PM 37.0789 -78.2994 41° Northeast 391 450 24,400 -480 Descending Washington Center
03:37PM 37.1536 -78.2239 39° Northeast 366 421 24,000 -480 Descending Washington Center
03:38PM 37.2197 -78.1531 40° Northeast 345 397 23,500 -540 Descending Washington Center
03:39PM 37.2944 -78.0772 39° Northeast 340 391 23,000 -540 Descending Washington Center
03:40PM 37.3692 -77.9961 41° Northeast 340 391 22,500 -540 Descending Washington Center
03:41PM 37.4436 -77.9172 40° Northeast 340 391 22,000 -300 Descending Washington Center
03:42PM 37.5181 -77.8411 39° Northeast 340 391 22,000  Level Washington Center
03:43PM 37.6047 -77.7858 27° Northeast 340 391 22,000 -780 Level Washington Center
03:44PM 37.6892 -77.7331 26° Northeast 340 391 20,500 -1,740 Descending Washington Center
03:45PM 37.7756 -77.6831 25° Northeast 329 379 18,500 -1,740 Descending Washington Center
03:46PM 37.8575 -77.6353 25° Northeast 323 372 17,100 -1,620 Descending Washington Center
03:47PM 37.9378 -77.5875 25° Northeast 316 364 15,300 -1,740 Descending Washington Center
03:48PM 38.0114 -77.5419 26° Northeast 306 352 13,600 -1,620 Descending Washington Center
03:49PM 38.0808 -77.5042 23° Northeast 281 323 12,200 -1,500 Descending Washington Center
03:50PM 38.1503 -77.4664 23° Northeast 268 308 10,700 -1,140 Descending Washington Center
03:51PM 38.2261 -77.4208 25° Northeast 280 322 10,000 -360 Descending Washington Center
03:52PM 38.3033 -77.4042 10° North 287 330 10,000 -240 Level Washington Center
03:53PM 38.3719 -77.4192 350° North 266 306 9,600 -660 Descending Washington Center
03:54PM 38.4428 -77.4339 351° North 254 292 8,800 -960 Descending Washington Center
03:55PM 38.5072 -77.4461 352° North 249 287 7,800 -1,080 Descending Washington Center
03:56PM 38.5736 -77.4586 352° North 244 281 6,700 -840 Descending Washington Center
03:57PM 38.6297 -77.4678 353° North 224 258 6,200 -540 Descending Washington Center
03:57PM 38.6667 -77.4667 North 172 198 5,900 -840 Descending Potomac TRACON
03:58PM 38.7167 -77.4667 360° North 175 201 5,000 -900 Descending Potomac TRACON
03:59PM 38.7667 -77.4667 360° North 176 203 4,200 -960 Descending Potomac TRACON
04:00PM 38.8000 -77.4667 360° North 174 200 3,100 -1,080 Descending Potomac TRACON
04:01PM 38.8500 -77.4667 360° North 169 194 2,100 -900 Descending Potomac TRACON
04:02PM 38.9000 -77.4667 360° North 134 154 1,300 -840 Descending Potomac TRACON